sensor_id;sensor_type;location;lat;lon;timestamp;pressure;altitude;pressure_sealevel;temperature;humidity
58622;BME280;44389;51.578;5.456;2023-06-14T00:00:09;101256.91;;;16.36;54.35
58622;BME280;44389;51.578;5.456;2023-06-14T00:02:34;101253.50;;;16.40;54.11
58622;BME280;44389;51.578;5.456;2023-06-14T00:05:00;101257.81;;;16.39;54.18
58622;BME280;44389;51.578;5.456;2023-06-14T00:07:39;101263.09;;;16.45;53.25
58622;BME280;44389;51.578;5.456;2023-06-14T00:10:08;101263.00;;;16.38;53.44
58622;BME280;44389;51.578;5.456;2023-06-14T00:12:34;101258.66;;;16.37;53.23
58622;BME280;44389;51.578;5.456;2023-06-14T00:14:59;101259.44;;;16.29;53.82
58622;BME280;44389;51.578;5.456;2023-06-14T00:17:26;101266.25;;;16.20;54.38
58622;BME280;44389;51.578;5.456;2023-06-14T00:19:58;101259.28;;;16.16;54.17
58622;BME280;44389;51.578;5.456;2023-06-14T00:22:24;101254.78;;;16.04;54.42
58622;BME280;44389;51.578;5.456;2023-06-14T00:24:56;101256.44;;;15.99;54.38
58622;BME280;44389;51.578;5.456;2023-06-14T00:27:21;101265.84;;;15.90;54.25
58622;BME280;44389;51.578;5.456;2023-06-14T00:29:46;101266.66;;;15.85;55.02
58622;BME280;44389;51.578;5.456;2023-06-14T00:32:12;101262.41;;;15.93;53.55
58622;BME280;44389;51.578;5.456;2023-06-14T00:34:37;101266.69;;;15.89;52.34
58622;BME280;44389;51.578;5.456;2023-06-14T00:37:02;101269.06;;;15.75;53.88
58622;BME280;44389;51.578;5.456;2023-06-14T00:39:27;101262.91;;;15.69;54.63
58622;BME280;44389;51.578;5.456;2023-06-14T00:41:53;101263.69;;;15.63;54.39
58622;BME280;44389;51.578;5.456;2023-06-14T00:44:18;101264.50;;;15.59;53.92
58622;BME280;44389;51.578;5.456;2023-06-14T00:46:46;101266.16;;;15.55;53.29
58622;BME280;44389;51.578;5.456;2023-06-14T00:49:14;101268.88;;;15.63;51.83
58622;BME280;44389;51.578;5.456;2023-06-14T00:51:41;101265.44;;;15.66;51.23
58622;BME280;44389;51.578;5.456;2023-06-14T00:54:06;101267.09;;;15.59;52.32
58622;BME280;44389;51.578;5.456;2023-06-14T00:56:32;101273.97;;;15.57;52.42
58622;BME280;44389;51.578;5.456;2023-06-14T00:58:57;101267.88;;;15.53;52.15
58622;BME280;44389;51.578;5.456;2023-06-14T01:01:23;101263.50;;;15.51;52.65
58622;BME280;44389;51.578;5.456;2023-06-14T01:03:49;101272.03;;;15.43;52.54
58622;BME280;44389;51.578;5.456;2023-06-14T01:06:27;101273.06;;;15.53;52.05
58622;BME280;44389;51.578;5.456;2023-06-14T01:09:35;101272.97;;;15.47;51.21
58622;BME280;44389;51.578;5.456;2023-06-14T01:12:09;101281.50;;;15.40;52.22
58622;BME280;44389;51.578;5.456;2023-06-14T01:14:36;101278.03;;;15.38;51.89
58622;BME280;44389;51.578;5.456;2023-06-14T01:17:03;101273.53;;;15.27;53.05
58622;BME280;44389;51.578;5.456;2023-06-14T01:19:30;101279.56;;;15.26;52.83
58622;BME280;44389;51.578;5.456;2023-06-14T01:21:57;101273.38;;;15.20;53.31
58622;BME280;44389;51.578;5.456;2023-06-14T01:24:22;101278.44;;;15.12;54.44
58622;BME280;44389;51.578;5.456;2023-06-14T01:26:53;101273.16;;;15.07;53.50
58622;BME280;44389;51.578;5.456;2023-06-14T01:29:22;101272.19;;;15.01;54.33
58622;BME280;44389;51.578;5.456;2023-06-14T01:31:49;101274.69;;;14.96;54.57
58622;BME280;44389;51.578;5.456;2023-06-14T01:34:15;101278.03;;;14.89;54.66
58622;BME280;44389;51.578;5.456;2023-06-14T01:36:43;101276.03;;;14.75;55.82
58622;BME280;44389;51.578;5.456;2023-06-14T01:39:12;101279.38;;;14.68;55.90
58622;BME280;44389;51.578;5.456;2023-06-14T01:41:39;101281.63;;;14.54;56.93
58622;BME280;44389;51.578;5.456;2023-06-14T01:44:05;101273.63;;;14.43;57.60
58622;BME280;44389;51.578;5.456;2023-06-14T01:46:31;101276.94;;;14.35;57.95
58622;BME280;44389;51.578;5.456;2023-06-14T01:48:56;101275.00;;;14.26;58.52
58622;BME280;44389;51.578;5.456;2023-06-14T01:51:21;101277.50;;;14.21;58.52
58622;BME280;44389;51.578;5.456;2023-06-14T01:53:47;101276.47;;;14.14;58.69
58622;BME280;44389;51.578;5.456;2023-06-14T01:56:13;101285.78;;;14.05;60.02
58622;BME280;44389;51.578;5.456;2023-06-14T01:58:39;101276.22;;;14.02;59.68
58622;BME280;44389;51.578;5.456;2023-06-14T02:01:04;101276.09;;;13.96;60.30
58622;BME280;44389;51.578;5.456;2023-06-14T02:03:30;101274.28;;;13.92;60.79
58622;BME280;44389;51.578;5.456;2023-06-14T02:05:55;101275.09;;;13.89;60.68
58622;BME280;44389;51.578;5.456;2023-06-14T02:08:21;101280.13;;;13.83;61.13
58622;BME280;44389;51.578;5.456;2023-06-14T02:10:47;101275.75;;;13.80;61.04
58622;BME280;44389;51.578;5.456;2023-06-14T02:13:12;101279.22;;;13.82;61.34
58622;BME280;44389;51.578;5.456;2023-06-14T02:15:38;101278.19;;;13.74;61.73
58622;BME280;44389;51.578;5.456;2023-06-14T02:18:04;101280.16;;;13.85;60.42
58622;BME280;44389;51.578;5.456;2023-06-14T02:20:29;101277.63;;;13.88;60.42
58622;BME280;44389;51.578;5.456;2023-06-14T02:22:55;101281.91;;;13.86;60.92
58622;BME280;44389;51.578;5.456;2023-06-14T02:25:20;101274.13;;;13.86;60.86
58622;BME280;44389;51.578;5.456;2023-06-14T02:27:46;101277.84;;;13.97;59.48
58622;BME280;44389;51.578;5.456;2023-06-14T02:30:11;101283.84;;;13.94;60.00
58622;BME280;44389;51.578;5.456;2023-06-14T02:32:37;101274.53;;;14.04;59.67
58622;BME280;44389;51.578;5.456;2023-06-14T02:35:03;101281.66;;;14.14;59.47
58622;BME280;44389;51.578;5.456;2023-06-14T02:37:29;101284.16;;;14.10;59.92
58622;BME280;44389;51.578;5.456;2023-06-14T02:39:55;101284.91;;;14.04;60.54
58622;BME280;44389;51.578;5.456;2023-06-14T02:42:21;101287.47;;;14.03;60.10
58622;BME280;44389;51.578;5.456;2023-06-14T02:44:46;101282.28;;;14.03;59.04
58622;BME280;44389;51.578;5.456;2023-06-14T02:47:16;101284.72;;;13.96;60.59
58622;BME280;44389;51.578;5.456;2023-06-14T02:49:41;101284.81;;;13.99;60.01
58622;BME280;44389;51.578;5.456;2023-06-14T02:52:06;101291.84;;;14.05;59.40
58622;BME280;44389;51.578;5.456;2023-06-14T02:54:34;101293.44;;;14.00;60.43
58622;BME280;44389;51.578;5.456;2023-06-14T02:56:59;101295.88;;;13.92;61.10
58622;BME280;44389;51.578;5.456;2023-06-14T02:59:24;101287.91;;;13.85;62.37
58622;BME280;44389;51.578;5.456;2023-06-14T03:01:50;101286.88;;;13.76;62.47
58622;BME280;44389;51.578;5.456;2023-06-14T03:04:15;101287.06;;;13.84;61.14
58622;BME280;44389;51.578;5.456;2023-06-14T03:06:41;101292.75;;;13.71;62.35
58622;BME280;44389;51.578;5.456;2023-06-14T03:09:09;101292.75;;;13.69;62.80
58622;BME280;44389;51.578;5.456;2023-06-14T03:11:35;101294.34;;;13.64;63.08
58622;BME280;44389;51.578;5.456;2023-06-14T03:14:01;101298.50;;;13.57;63.07
58622;BME280;44389;51.578;5.456;2023-06-14T03:16:28;101300.09;;;13.52;62.83
58622;BME280;44389;51.578;5.456;2023-06-14T03:18:55;101297.47;;;13.50;62.63
58622;BME280;44389;51.578;5.456;2023-06-14T03:21:20;101306.16;;;13.53;63.08
58622;BME280;44389;51.578;5.456;2023-06-14T03:23:46;101307.88;;;13.52;62.73
58622;BME280;44389;51.578;5.456;2023-06-14T03:26:12;101304.38;;;13.52;63.54
58622;BME280;44389;51.578;5.456;2023-06-14T03:28:40;101306.78;;;13.44;63.42
58622;BME280;44389;51.578;5.456;2023-06-14T03:31:06;101307.72;;;13.46;62.72
58622;BME280;44389;51.578;5.456;2023-06-14T03:33:32;101309.50;;;13.48;62.72
58622;BME280;44389;51.578;5.456;2023-06-14T03:35:57;101313.84;;;13.49;62.75
58622;BME280;44389;51.578;5.456;2023-06-14T03:38:23;101309.72;;;13.58;63.69
58622;BME280;44389;51.578;5.456;2023-06-14T03:40:48;101319.19;;;13.56;64.13
58622;BME280;44389;51.578;5.456;2023-06-14T03:43:13;101315.44;;;13.44;65.43
58622;BME280;44389;51.578;5.456;2023-06-14T03:45:39;101316.44;;;13.49;64.69
58622;BME280;44389;51.578;5.456;2023-06-14T03:48:05;101320.84;;;13.54;64.98
58622;BME280;44389;51.578;5.456;2023-06-14T03:50:32;101318.00;;;13.43;65.97
58622;BME280;44389;51.578;5.456;2023-06-14T03:52:57;101318.19;;;13.50;65.65
58622;BME280;44389;51.578;5.456;2023-06-14T03:55:23;101324.44;;;13.59;65.06
58622;BME280;44389;51.578;5.456;2023-06-14T03:57:50;101323.28;;;13.47;64.99
58622;BME280;44389;51.578;5.456;2023-06-14T04:00:16;101324.19;;;13.48;66.44
58622;BME280;44389;51.578;5.456;2023-06-14T04:02:41;101321.69;;;13.53;66.81
58622;BME280;44389;51.578;5.456;2023-06-14T04:05:07;101325.03;;;13.48;65.42
58622;BME280;44389;51.578;5.456;2023-06-14T04:07:34;101324.28;;;13.53;65.47
58622;BME280;44389;51.578;5.456;2023-06-14T04:10:06;101329.25;;;13.45;66.53
58622;BME280;44389;51.578;5.456;2023-06-14T04:12:31;101333.94;;;13.58;66.42
58622;BME280;44389;51.578;5.456;2023-06-14T04:14:56;101335.56;;;13.55;66.35
58622;BME280;44389;51.578;5.456;2023-06-14T04:17:22;101333.13;;;13.61;65.85
58622;BME280;44389;51.578;5.456;2023-06-14T04:19:47;101344.28;;;13.58;67.43
58622;BME280;44389;51.578;5.456;2023-06-14T04:22:12;101337.44;;;13.62;68.10
58622;BME280;44389;51.578;5.456;2023-06-14T04:24:38;101335.78;;;13.64;68.00
58622;BME280;44389;51.578;5.456;2023-06-14T04:27:03;101345.41;;;13.70;65.63
58622;BME280;44389;51.578;5.456;2023-06-14T04:29:29;101344.69;;;13.75;67.94
58622;BME280;44389;51.578;5.456;2023-06-14T04:31:55;101343.09;;;13.80;68.37
58622;BME280;44389;51.578;5.456;2023-06-14T04:34:25;101346.81;;;13.92;67.88
58622;BME280;44389;51.578;5.456;2023-06-14T04:36:55;101352.06;;;13.95;67.88
58622;BME280;44389;51.578;5.456;2023-06-14T04:39:22;101343.50;;;13.97;69.26
58622;BME280;44389;51.578;5.456;2023-06-14T04:41:48;101348.09;;;14.09;70.73
58622;BME280;44389;51.578;5.456;2023-06-14T04:44:16;101353.69;;;14.28;67.17
58622;BME280;44389;51.578;5.456;2023-06-14T04:46:42;101349.41;;;14.30;66.68
58622;BME280;44389;51.578;5.456;2023-06-14T04:49:14;101351.41;;;14.42;66.50
58622;BME280;44389;51.578;5.456;2023-06-14T04:51:41;101350.75;;;14.52;66.93
58622;BME280;44389;51.578;5.456;2023-06-14T04:54:10;101352.69;;;14.62;67.37
58622;BME280;44389;51.578;5.456;2023-06-14T04:56:39;101349.56;;;14.76;63.36
58622;BME280;44389;51.578;5.456;2023-06-14T04:59:04;101352.53;;;14.96;61.62
58622;BME280;44389;51.578;5.456;2023-06-14T05:01:30;101354.59;;;15.12;60.42
58622;BME280;44389;51.578;5.456;2023-06-14T05:03:59;101359.13;;;15.23;59.84
58622;BME280;44389;51.578;5.456;2023-06-14T05:06:25;101361.88;;;15.32;59.73
58622;BME280;44389;51.578;5.456;2023-06-14T05:08:51;101359.50;;;15.44;59.32
58622;BME280;44389;51.578;5.456;2023-06-14T05:11:16;101358.81;;;15.55;58.94
58622;BME280;44389;51.578;5.456;2023-06-14T05:13:44;101358.03;;;15.60;58.39
58622;BME280;44389;51.578;5.456;2023-06-14T05:16:10;101362.63;;;15.75;57.34
58622;BME280;44389;51.578;5.456;2023-06-14T05:18:36;101367.06;;;15.81;58.20
58622;BME280;44389;51.578;5.456;2023-06-14T05:21:02;101370.63;;;15.86;58.73
58622;BME280;44389;51.578;5.456;2023-06-14T05:23:29;101372.50;;;15.93;58.36
58622;BME280;44389;51.578;5.456;2023-06-14T05:25:55;101366.53;;;16.02;59.39
58622;BME280;44389;51.578;5.456;2023-06-14T05:28:20;101366.66;;;16.10;57.71
58622;BME280;44389;51.578;5.456;2023-06-14T05:30:45;101371.94;;;16.16;57.71
58622;BME280;44389;51.578;5.456;2023-06-14T05:33:11;101376.41;;;16.25;56.51
58622;BME280;44389;51.578;5.456;2023-06-14T05:35:36;101375.69;;;16.35;57.38
58622;BME280;44389;51.578;5.456;2023-06-14T05:38:03;101377.53;;;16.42;57.34
58622;BME280;44389;51.578;5.456;2023-06-14T05:40:28;101377.59;;;16.49;56.88
58622;BME280;44389;51.578;5.456;2023-06-14T05:42:53;101377.69;;;16.55;56.68
58622;BME280;44389;51.578;5.456;2023-06-14T05:45:18;101383.00;;;16.61;55.97
58622;BME280;44389;51.578;5.456;2023-06-14T05:47:44;101390.06;;;16.71;56.63
58622;BME280;44389;51.578;5.456;2023-06-14T05:50:09;101395.34;;;16.77;56.07
58622;BME280;44389;51.578;5.456;2023-06-14T05:52:35;101395.44;;;16.84;55.80
58622;BME280;44389;51.578;5.456;2023-06-14T05:55:02;101395.56;;;16.93;57.11
58622;BME280;44389;51.578;5.456;2023-06-14T05:57:28;101393.94;;;17.01;56.12
58622;BME280;44389;51.578;5.456;2023-06-14T05:59:53;101397.47;;;17.08;53.98
58622;BME280;44389;51.578;5.456;2023-06-14T06:02:19;101402.75;;;17.13;54.04
58622;BME280;44389;51.578;5.456;2023-06-14T06:04:44;101395.94;;;17.24;55.01
58622;BME280;44389;51.578;5.456;2023-06-14T06:07:10;101394.28;;;17.32;54.87
58622;BME280;44389;51.578;5.456;2023-06-14T06:09:35;101405.69;;;17.45;54.30
58622;BME280;44389;51.578;5.456;2023-06-14T06:12:00;101402.25;;;17.49;52.85
58622;BME280;44389;51.578;5.456;2023-06-14T06:14:26;101404.91;;;17.51;51.44
58622;BME280;44389;51.578;5.456;2023-06-14T06:16:51;101406.69;;;17.61;53.60
58622;BME280;44389;51.578;5.456;2023-06-14T06:19:18;101398.94;;;17.67;52.66
58622;BME280;44389;51.578;5.456;2023-06-14T06:21:43;101413.81;;;17.77;54.75
58622;BME280;44389;51.578;5.456;2023-06-14T06:24:09;101409.56;;;17.86;52.59
58622;BME280;44389;51.578;5.456;2023-06-14T06:26:34;101419.19;;;17.93;51.69
58622;BME280;44389;51.578;5.456;2023-06-14T06:29:00;101420.16;;;18.04;52.22
58622;BME280;44389;51.578;5.456;2023-06-14T06:31:25;101422.81;;;18.14;52.09
58622;BME280;44389;51.578;5.456;2023-06-14T06:33:52;101428.09;;;18.23;51.32
58622;BME280;44389;51.578;5.456;2023-06-14T06:36:19;101428.19;;;18.32;49.66
58622;BME280;44389;51.578;5.456;2023-06-14T06:38:45;101433.47;;;18.45;50.17
58622;BME280;44389;51.578;5.456;2023-06-14T06:41:10;101433.56;;;18.57;49.45
58622;BME280;44389;51.578;5.456;2023-06-14T06:43:35;101431.00;;;18.65;49.30
58622;BME280;44389;51.578;5.456;2023-06-14T06:46:01;101435.38;;;18.69;48.53
58622;BME280;44389;51.578;5.456;2023-06-14T06:48:26;101439.78;;;18.78;48.26
58622;BME280;44389;51.578;5.456;2023-06-14T06:50:51;101443.31;;;18.89;48.03
58622;BME280;44389;51.578;5.456;2023-06-14T06:53:17;101443.38;;;18.98;47.83
58622;BME280;44389;51.578;5.456;2023-06-14T06:55:44;101442.56;;;19.12;49.80
58622;BME280;44389;51.578;5.456;2023-06-14T06:58:09;101447.81;;;19.21;49.27
58622;BME280;44389;51.578;5.456;2023-06-14T07:00:34;101451.34;;;19.31;48.19
58622;BME280;44389;51.578;5.456;2023-06-14T07:03:00;101450.50;;;19.42;46.58
58622;BME280;44389;51.578;5.456;2023-06-14T07:05:26;101453.13;;;19.50;46.08
58622;BME280;44389;51.578;5.456;2023-06-14T07:07:51;101458.38;;;19.58;46.52
58622;BME280;44389;51.578;5.456;2023-06-14T07:10:17;101454.91;;;19.68;46.41
58622;BME280;44389;51.578;5.456;2023-06-14T07:12:42;101462.75;;;19.79;46.62
58622;BME280;44389;51.578;5.456;2023-06-14T07:15:07;101456.72;;;19.91;46.67
58622;BME280;44389;51.578;5.456;2023-06-14T07:17:33;101455.81;;;19.97;45.34
58622;BME280;44389;51.578;5.456;2023-06-14T07:19:59;101461.94;;;20.10;45.95
58622;BME280;44389;51.578;5.456;2023-06-14T07:22:26;101461.94;;;20.19;44.69
58622;BME280;44389;51.578;5.456;2023-06-14T07:24:51;101461.94;;;20.22;45.02
58622;BME280;44389;51.578;5.456;2023-06-14T07:27:16;101468.03;;;20.36;46.03
58622;BME280;44389;51.578;5.456;2023-06-14T07:29:42;101475.88;;;20.47;44.57
58622;BME280;44389;51.578;5.456;2023-06-14T07:32:07;101477.59;;;20.59;43.85
58622;BME280;44389;51.578;5.456;2023-06-14T07:34:32;101475.84;;;20.61;42.74
58622;BME280;44389;51.578;5.456;2023-06-14T07:36:58;101474.13;;;20.72;43.57
58622;BME280;44389;51.578;5.456;2023-06-14T07:39:23;101476.69;;;20.83;44.17
58622;BME280;44389;51.578;5.456;2023-06-14T07:41:48;101479.31;;;20.88;43.12
58622;BME280;44389;51.578;5.456;2023-06-14T07:44:14;101482.72;;;21.05;43.32
58622;BME280;44389;51.578;5.456;2023-06-14T07:46:39;101487.94;;;21.12;42.24
58622;BME280;44389;51.578;5.456;2023-06-14T07:49:05;101493.16;;;21.18;41.69
58622;BME280;44389;51.578;5.456;2023-06-14T07:51:31;101488.78;;;21.20;40.21
58622;BME280;44389;51.578;5.456;2023-06-14T07:53:56;101491.38;;;21.26;40.21
58622;BME280;44389;51.578;5.456;2023-06-14T07:56:21;101507.09;;;21.29;41.18
58622;BME280;44389;51.578;5.456;2023-06-14T07:58:48;101495.72;;;21.33;40.05
58622;BME280;44389;51.578;5.456;2023-06-14T08:01:13;101496.53;;;21.42;40.30
58622;BME280;44389;51.578;5.456;2023-06-14T08:03:38;101500.84;;;21.60;41.03
58622;BME280;44389;51.578;5.456;2023-06-14T08:06:06;101498.13;;;21.77;43.05
58622;BME280;44389;51.578;5.456;2023-06-14T08:08:31;101498.03;;;21.94;41.67
58622;BME280;44389;51.578;5.456;2023-06-14T08:10:57;101507.63;;;21.93;40.87
58622;BME280;44389;51.578;5.456;2023-06-14T08:13:22;101497.94;;;22.03;39.40
58622;BME280;44389;51.578;5.456;2023-06-14T08:15:47;101497.00;;;22.09;39.79
58622;BME280;44389;51.578;5.456;2023-06-14T08:18:12;101500.47;;;22.17;39.97
58622;BME280;44389;51.578;5.456;2023-06-14T08:20:38;101500.47;;;22.15;38.14
58622;BME280;44389;51.578;5.456;2023-06-14T08:23:03;101504.69;;;22.33;40.64
58622;BME280;44389;51.578;5.456;2023-06-14T08:25:30;101501.16;;;22.41;37.69
58622;BME280;44389;51.578;5.456;2023-06-14T08:27:56;101498.47;;;22.47;38.01
58622;BME280;44389;51.578;5.456;2023-06-14T08:30:22;101507.16;;;22.53;37.46
58622;BME280;44389;51.578;5.456;2023-06-14T08:32:47;101504.56;;;22.52;35.29
58622;BME280;44389;51.578;5.456;2023-06-14T08:35:12;101506.31;;;22.50;35.73
58622;BME280;44389;51.578;5.456;2023-06-14T08:37:39;101502.75;;;22.57;35.98
58622;BME280;44389;51.578;5.456;2023-06-14T08:40:17;101507.13;;;22.60;36.22
58622;BME280;44389;51.578;5.456;2023-06-14T08:42:44;101499.09;;;22.71;36.43
58622;BME280;44389;51.578;5.456;2023-06-14T08:45:11;101500.63;;;22.90;37.04
58622;BME280;44389;51.578;5.456;2023-06-14T08:47:36;101495.47;;;22.84;35.30
58622;BME280;44389;51.578;5.456;2023-06-14T08:50:02;101497.00;;;23.02;36.03
58622;BME280;44389;51.578;5.456;2023-06-14T08:52:30;101505.63;;;23.13;36.53
58622;BME280;44389;51.578;5.456;2023-06-14T08:54:59;101504.78;;;23.13;34.87
58622;BME280;44389;51.578;5.456;2023-06-14T08:57:26;101503.81;;;23.20;35.32
58622;BME280;44389;51.578;5.456;2023-06-14T08:59:56;101495.00;;;23.26;34.29
58622;BME280;44389;51.578;5.456;2023-06-14T09:02:22;101503.47;;;23.48;35.14
58622;BME280;44389;51.578;5.456;2023-06-14T09:04:47;101498.16;;;23.51;32.57
58622;BME280;44389;51.578;5.456;2023-06-14T09:07:14;101498.03;;;23.59;31.43
58622;BME280;44389;51.578;5.456;2023-06-14T09:09:41;101493.59;;;23.65;33.02
58622;BME280;44389;51.578;5.456;2023-06-14T09:12:15;101506.50;;;23.81;32.73
58622;BME280;44389;51.578;5.456;2023-06-14T09:14:41;101504.50;;;23.98;32.47
58622;BME280;44389;51.578;5.456;2023-06-14T09:17:07;101502.63;;;24.07;32.13
58622;BME280;44389;51.578;5.456;2023-06-14T09:19:33;101515.75;;;24.10;30.29
58622;BME280;44389;51.578;5.456;2023-06-14T09:22:00;101513.03;;;24.13;29.54
58622;BME280;44389;51.578;5.456;2023-06-14T09:24:25;101501.41;;;24.28;30.02
58622;BME280;44389;51.578;5.456;2023-06-14T09:26:51;101505.91;;;24.21;28.57
58622;BME280;44389;51.578;5.456;2023-06-14T09:29:17;101502.25;;;24.28;27.99
58622;BME280;44389;51.578;5.456;2023-06-14T09:31:45;101502.94;;;24.40;29.91
58622;BME280;44389;51.578;5.456;2023-06-14T09:34:10;101508.28;;;24.37;28.76
58622;BME280;44389;51.578;5.456;2023-06-14T09:36:39;101505.56;;;24.40;28.21
58622;BME280;44389;51.578;5.456;2023-06-14T09:39:06;101513.19;;;24.55;27.49
58622;BME280;44389;51.578;5.456;2023-06-14T09:41:39;101520.94;;;24.68;27.40
58622;BME280;44389;51.578;5.456;2023-06-14T09:44:09;101513.28;;;24.52;27.09
58622;BME280;44389;51.578;5.456;2023-06-14T09:46:36;101509.81;;;24.48;27.38
58622;BME280;44389;51.578;5.456;2023-06-14T09:49:02;101520.25;;;25.02;29.56
58622;BME280;44389;51.578;5.456;2023-06-14T09:51:28;101511.97;;;25.20;26.79
58622;BME280;44389;51.578;5.456;2023-06-14T09:54:01;101518.31;;;25.55;26.96
58622;BME280;44389;51.578;5.456;2023-06-14T09:56:32;101511.88;;;25.25;26.65
58622;BME280;44389;51.578;5.456;2023-06-14T09:58:59;101521.53;;;25.68;27.45
58622;BME280;44389;51.578;5.456;2023-06-14T10:01:27;101517.66;;;25.44;27.07
58622;BME280;44389;51.578;5.456;2023-06-14T10:03:59;101517.69;;;25.82;27.50
58622;BME280;44389;51.578;5.456;2023-06-14T10:06:26;101508.50;;;25.60;27.02
58622;BME280;44389;51.578;5.456;2023-06-14T10:08:56;101510.47;;;25.88;26.66
58622;BME280;44389;51.578;5.456;2023-06-14T10:11:22;101506.97;;;26.25;27.42
58622;BME280;44389;51.578;5.456;2023-06-14T10:13:48;101511.69;;;26.47;26.10
58622;BME280;44389;51.578;5.456;2023-06-14T10:16:20;101510.50;;;26.59;25.73
58622;BME280;44389;51.578;5.456;2023-06-14T10:18:52;101507.34;;;27.10;26.00
58622;BME280;44389;51.578;5.456;2023-06-14T10:24:13;101489.69;;;28.75;23.43
58622;BME280;44389;51.578;5.456;2023-06-14T10:26:58;101504.00;;;29.86;24.07
58622;BME280;44389;51.578;5.456;2023-06-14T10:29:28;101509.31;;;29.86;22.15
58622;BME280;44389;51.578;5.456;2023-06-14T10:31:58;101508.41;;;31.49;20.22
58622;BME280;44389;51.578;5.456;2023-06-14T10:34:25;101515.66;;;31.46;20.01
58622;BME280;44389;51.578;5.456;2023-06-14T10:39:31;101513.03;;;33.04;19.02
58622;BME280;44389;51.578;5.456;2023-06-14T10:41:57;101520.19;;;33.03;17.90
58622;BME280;44389;51.578;5.456;2023-06-14T10:46:54;101504.44;;;33.46;18.62
58622;BME280;44389;51.578;5.456;2023-06-14T10:49:35;101517.72;;;33.16;18.54
58622;BME280;44389;51.578;5.456;2023-06-14T10:52:03;101509.09;;;33.11;17.83
58622;BME280;44389;51.578;5.456;2023-06-14T10:54:31;101507.75;;;32.17;18.70
58622;BME280;44389;51.578;5.456;2023-06-14T10:56:58;101513.88;;;32.37;19.11
58622;BME280;44389;51.578;5.456;2023-06-14T10:59:24;101504.59;;;32.09;19.19
58622;BME280;44389;51.578;5.456;2023-06-14T11:04:17;101509.09;;;33.59;19.11
58622;BME280;44389;51.578;5.456;2023-06-14T11:06:50;101508.81;;;33.79;17.87
58622;BME280;44389;51.578;5.456;2023-06-14T11:12:10;101504.06;;;33.21;18.79
58622;BME280;44389;51.578;5.456;2023-06-14T11:14:37;101508.97;;;33.30;18.54
58622;BME280;44389;51.578;5.456;2023-06-14T11:17:03;101510.50;;;32.85;18.97
58622;BME280;44389;51.578;5.456;2023-06-14T11:19:29;101501.31;;;33.06;18.52
58622;BME280;44389;51.578;5.456;2023-06-14T11:21:54;101508.09;;;33.29;18.56
58622;BME280;44389;51.578;5.456;2023-06-14T11:24:20;101507.19;;;33.13;18.82
58622;BME280;44389;51.578;5.456;2023-06-14T11:26:46;101499.06;;;32.98;19.22
58622;BME280;44389;51.578;5.456;2023-06-14T11:29:14;101504.91;;;32.73;19.33
58622;BME280;44389;51.578;5.456;2023-06-14T11:31:43;101491.19;;;32.79;19.58
58622;BME280;44389;51.578;5.456;2023-06-14T11:34:09;101500.13;;;32.45;20.01
58622;BME280;44389;51.578;5.456;2023-06-14T11:36:35;101492.03;;;32.46;19.44
58622;BME280;44389;51.578;5.456;2023-06-14T11:39:02;101490.31;;;33.12;18.47
58622;BME280;44389;51.578;5.456;2023-06-14T11:41:42;101486.63;;;33.47;18.42
58622;BME280;44389;51.578;5.456;2023-06-14T11:44:08;101483.75;;;33.02;18.64
58622;BME280;44389;51.578;5.456;2023-06-14T11:46:34;101496.41;;;32.98;19.09
58622;BME280;44389;51.578;5.456;2023-06-14T11:49:01;101497.69;;;33.71;18.75
58622;BME280;44389;51.578;5.456;2023-06-14T11:51:29;101491.00;;;33.64;19.15
58622;BME280;44389;51.578;5.456;2023-06-14T11:53:55;101479.41;;;33.63;19.33
58622;BME280;44389;51.578;5.456;2023-06-14T11:56:20;101491.66;;;33.84;18.34
58622;BME280;44389;51.578;5.456;2023-06-14T11:58:46;101492.16;;;33.90;18.76
58622;BME280;44389;51.578;5.456;2023-06-14T12:01:16;101488.56;;;32.95;18.78
58622;BME280;44389;51.578;5.456;2023-06-14T12:03:47;101497.03;;;33.52;19.13
58622;BME280;44389;51.578;5.456;2023-06-14T12:06:13;101490.63;;;33.06;19.54
58622;BME280;44389;51.578;5.456;2023-06-14T12:08:39;101486.31;;;33.84;19.85
58622;BME280;44389;51.578;5.456;2023-06-14T12:11:06;101492.53;;;34.29;19.25
58622;BME280;44389;51.578;5.456;2023-06-14T12:13:33;101487.22;;;33.99;18.68
58622;BME280;44389;51.578;5.456;2023-06-14T12:15:59;101491.72;;;34.12;18.46
58622;BME280;44389;51.578;5.456;2023-06-14T12:18:32;101495.75;;;34.05;19.20
58622;BME280;44389;51.578;5.456;2023-06-14T12:20:59;101487.78;;;34.34;18.35
58622;BME280;44389;51.578;5.456;2023-06-14T12:23:45;101490.25;;;33.92;19.57
58622;BME280;44389;51.578;5.456;2023-06-14T12:26:17;101490.72;;;33.69;19.51
58622;BME280;44389;51.578;5.456;2023-06-14T12:28:47;101493.38;;;33.21;18.89
58622;BME280;44389;51.578;5.456;2023-06-14T12:31:14;101490.91;;;33.02;18.81
58622;BME280;44389;51.578;5.456;2023-06-14T12:33:40;101496.50;;;34.07;18.48
58622;BME280;44389;51.578;5.456;2023-06-14T12:36:10;101493.66;;;34.10;17.55
58622;BME280;44389;51.578;5.456;2023-06-14T12:38:36;101491.25;;;34.06;16.86
58622;BME280;44389;51.578;5.456;2023-06-14T12:41:01;101493.16;;;34.49;18.32
58622;BME280;44389;51.578;5.456;2023-06-14T12:43:27;101500.06;;;34.53;16.95
58622;BME280;44389;51.578;5.456;2023-06-14T12:45:53;101490.31;;;34.52;16.53
58622;BME280;44389;51.578;5.456;2023-06-14T12:48:19;101486.59;;;34.24;16.22
58622;BME280;44389;51.578;5.456;2023-06-14T12:50:44;101496.47;;;33.77;16.65
58622;BME280;44389;51.578;5.456;2023-06-14T12:53:09;101496.66;;;33.90;16.35
58622;BME280;44389;51.578;5.456;2023-06-14T12:55:36;101485.75;;;34.23;16.09
58622;BME280;44389;51.578;5.456;2023-06-14T12:58:01;101498.66;;;33.70;17.16
58622;BME280;44389;51.578;5.456;2023-06-14T13:00:26;101489.00;;;34.88;17.07